Time;durP1;ratioP1;P1;durP2;ratioP2;P2;SDS_P1;SDS_P2;PMS_P1;PMS_P2;Temp;Humidity;BMP_temperature;BMP_pressure;BME280_temperature;BME280_humidity;BME280_pressure;Samples;Min_cycle;Max_cycle;Signal;HPM_P1;HPM_P2
2022/09/14 00:01:43;;;;;;;;;;;24.70;69.00;;;;;;6105983;28;19937;-42
2022/09/14 00:04:44;;;;;;;;;;;24.80;68.90;;;;;;6107482;28;19941;-42
2022/09/14 00:07:46;;;;;;;;;;;24.70;69.00;;;;;;6114717;28;19934;-45
2022/09/14 00:10:48;;;;;;;;;;;25.50;69.20;;;;;;6117142;28;19931;-44
2022/09/14 00:13:49;;;;;;;;;;;25.40;69.50;;;;;;6107429;28;19930;-43
2022/09/14 00:16:51;;;;;;;;;;;24.80;69.00;;;;;;6129787;28;19930;-43
2022/09/14 00:19:52;;;;;;;;;;;25.00;69.20;;;;;;6118719;28;19941;-44
2022/09/14 00:22:53;;;;;;;;;;;24.80;69.20;;;;;;6106694;28;19973;-44
2022/09/14 00:26:01;;;;;;;;;;;25.10;69.20;;;;;;6108926;28;19930;-42
2022/09/14 00:29:03;;;;;;;;;;;24.40;68.70;;;;;;6109996;28;19937;-43
2022/09/14 00:32:05;;;;;;;;;;;24.50;68.70;;;;;;6114738;28;19934;-42
2022/09/14 00:35:07;;;;;;;;;;;24.50;68.70;;;;;;6103374;28;19965;-42
2022/09/14 00:38:08;;;;;;;;;;;24.90;68.80;;;;;;6101940;28;20053;-42
2022/09/14 00:41:12;;;;;;;;;;;24.90;68.70;;;;;;6113853;28;19941;-43
2022/09/14 00:44:28;;;;;;;;;;;25.10;69.10;;;;;;6106340;28;19934;-41
2022/09/14 00:47:30;;;;;;;;;;;24.80;68.70;;;;;;6117555;28;20049;-45
2022/09/14 00:50:32;;;;;;;;;;;25.90;69.50;;;;;;6115296;28;19933;-44
2022/09/14 00:53:33;;;;;;;;;;;24.50;68.70;;;;;;6103513;28;20582;-43
2022/09/14 00:56:35;;;;;;;;;;;25.00;69.10;;;;;;6111542;28;20058;-44
2022/09/14 00:59:37;;;;;;;;;;;25.00;69.00;;;;;;6111310;28;19930;-45
2022/09/14 01:02:38;;;;;;;;;;;24.60;68.80;;;;;;6110692;28;19951;-42
2022/09/14 01:05:51;;;;;;;;;;;24.60;68.80;;;;;;6101303;28;19930;-45
2022/09/14 01:09:01;;;;;;;;;;;24.70;68.80;;;;;;6119611;28;20045;-45
2022/09/14 01:12:09;;;;;;;;;;;24.90;68.90;;;;;;6105167;28;20326;-43
2022/09/14 01:15:15;;;;;;;;;;;25.10;69.10;;;;;;6094748;28;20614;-46
2022/09/14 01:18:20;;;;;;;;;;;24.70;68.80;;;;;;6104801;28;19938;-45
2022/09/14 01:21:23;;;;;;;;;;;24.70;68.90;;;;;;6100481;28;20180;-45
2022/09/14 01:24:27;;;;;;;;;;;24.80;69.00;;;;;;6095381;28;20045;-43
2022/09/14 01:27:31;;;;;;;;;;;24.60;68.80;;;;;;6103609;28;20512;-41
2022/09/14 01:30:34;;;;;;;;;;;24.50;68.50;;;;;;6106054;28;20233;-42
2022/09/14 01:33:39;;;;;;;;;;;24.60;68.80;;;;;;6099344;28;20486;-45
2022/09/14 01:36:42;;;;;;;;;;;25.00;68.90;;;;;;6108429;28;19934;-44
2022/09/14 01:39:45;;;;;;;;;;;25.10;69.10;;;;;;6104790;28;19938;-43
2022/09/14 01:42:50;;;;;;;;;;;24.50;68.60;;;;;;6098315;28;19939;-43
2022/09/14 01:45:53;;;;;;;;;;;24.90;68.90;;;;;;6091814;28;20536;-45
2022/09/14 01:48:57;;;;;;;;;;;24.70;68.80;;;;;;6098546;28;20017;-43
2022/09/14 01:52:01;;;;;;;;;;;24.50;68.70;;;;;;6102469;28;20237;-44
2022/09/14 01:55:05;;;;;;;;;;;24.40;68.70;;;;;;6097780;28;19930;-49
2022/09/14 01:58:09;;;;;;;;;;;24.70;68.80;;;;;;6105371;28;19930;-43
2022/09/14 02:01:14;;;;;;;;;;;25.00;69.10;;;;;;6109860;28;19934;-41
2022/09/14 02:04:18;;;;;;;;;;;24.60;68.80;;;;;;6103466;28;20500;-42
2022/09/14 02:07:20;;;;;;;;;;;24.80;69.00;;;;;;6112098;28;20382;-45
2022/09/14 02:10:23;;;;;;;;;;;24.50;68.90;;;;;;6106736;28;19952;-43
2022/09/14 02:13:25;;;;;;;;;;;24.70;68.90;;;;;;6108754;28;19938;-42
2022/09/14 02:16:27;;;;;;;;;;;25.00;68.70;;;;;;6109686;28;20395;-43
2022/09/14 02:19:30;;;;;;;;;;;24.40;68.70;;;;;;6108110;28;19930;-42
2022/09/14 02:22:31;;;;;;;;;;;24.50;68.80;;;;;;6111663;28;20365;-45
2022/09/14 02:25:34;;;;;;;;;;;24.70;69.00;;;;;;6096657;28;20133;-43
2022/09/14 02:28:36;;;;;;;;;;;24.30;68.70;;;;;;6106378;28;20366;-43
2022/09/14 02:31:43;;;;;;;;;;;24.90;69.10;;;;;;6105444;28;20180;-43
2022/09/14 02:34:51;;;;;;;;;;;24.70;68.80;;;;;;6099302;28;20013;-42
2022/09/14 02:37:59;;;;;;;;;;;24.30;68.60;;;;;;6104508;28;19931;-42
2022/09/14 02:41:03;;;;;;;;;;;24.60;68.70;;;;;;6098547;28;20160;-43
2022/09/14 02:44:10;;;;;;;;;;;24.60;68.80;;;;;;6089767;28;20445;-41
2022/09/14 02:47:14;;;;;;;;;;;25.10;69.00;;;;;;6112245;28;20033;-45
2022/09/14 02:50:19;;;;;;;;;;;24.40;68.60;;;;;;6109549;28;20391;-43
2022/09/14 02:53:23;;;;;;;;;;;24.50;68.60;;;;;;6101928;28;19941;-43
2022/09/14 02:56:25;;;;;;;;;;;24.90;69.00;;;;;;6107691;28;20142;-42
2022/09/14 02:59:27;;;;;;;;;;;24.50;68.70;;;;;;6111902;28;20472;-45
2022/09/14 03:02:28;;;;;;;;;;;24.40;68.80;;;;;;6109063;28;19930;-42
2022/09/14 03:05:33;;;;;;;;;;;24.30;68.80;;;;;;6099984;28;19972;-44
2022/09/14 03:08:34;;;;;;;;;;;24.40;68.70;;;;;;6110283;28;20049;-42
2022/09/14 03:11:35;;;;;;;;;;;24.50;68.90;;;;;;6109740;28;20461;-44
2022/09/14 03:14:37;;;;;;;;;;;24.50;68.70;;;;;;6099467;28;19938;-41
2022/09/14 03:17:39;;;;;;;;;;;24.80;68.90;;;;;;6114212;28;19965;-46
2022/09/14 03:20:40;;;;;;;;;;;24.90;69.00;;;;;;6107147;28;20044;-43
2022/09/14 03:23:42;;;;;;;;;;;24.50;68.70;;;;;;6094256;28;20037;-44
2022/09/14 03:26:44;;;;;;;;;;;24.70;68.60;;;;;;6109617;28;20783;-45
2022/09/14 03:29:47;;;;;;;;;;;25.00;68.90;;;;;;6108384;28;20009;-43
2022/09/14 03:32:48;;;;;;;;;;;24.60;68.70;;;;;;6090715;28;19968;-42
2022/09/14 03:35:49;;;;;;;;;;;24.40;68.50;;;;;;6103949;28;20048;-45
2022/09/14 03:38:52;;;;;;;;;;;24.80;68.60;;;;;;6109615;28;19937;-43
2022/09/14 03:41:53;;;;;;;;;;;24.90;67.90;;;;;;6105750;28;20367;-42
2022/09/14 03:44:55;;;;;;;;;;;24.90;68.60;;;;;;6100909;28;19941;-43
2022/09/14 03:47:57;;;;;;;;;;;24.70;68.40;;;;;;6111450;28;20140;-47
2022/09/14 03:50:59;;;;;;;;;;;24.80;68.40;;;;;;6110541;28;20442;-44
2022/09/14 03:54:00;;;;;;;;;;;24.60;68.30;;;;;;6100571;28;20158;-44
2022/09/14 03:57:01;;;;;;;;;;;24.70;68.50;;;;;;6112304;28;19977;-46
2022/09/14 04:00:04;;;;;;;;;;;24.50;68.50;;;;;;6107815;28;20164;-43
2022/09/14 04:03:11;;;;;;;;;;;24.80;68.50;;;;;;6100709;28;20004;-44
2022/09/14 04:06:14;;;;;;;;;;;24.40;68.50;;;;;;6104775;28;20511;-44
2022/09/14 04:09:18;;;;;;;;;;;24.70;68.60;;;;;;6107702;28;20242;-43
2022/09/14 04:12:19;;;;;;;;;;;24.50;68.50;;;;;;6105266;28;19966;-43
2022/09/14 04:15:21;;;;;;;;;;;24.70;68.70;;;;;;6093407;28;19941;-42
2022/09/14 04:18:22;;;;;;;;;;;24.80;68.60;;;;;;6096652;28;20563;-42
2022/09/14 04:21:24;;;;;;;;;;;24.60;68.60;;;;;;6094989;28;20000;-44
2022/09/14 04:24:25;;;;;;;;;;;24.70;68.60;;;;;;6089325;28;20244;-42
2022/09/14 04:27:31;;;;;;;;;;;24.80;68.70;;;;;;6095888;28;20260;-43
2022/09/14 04:30:33;;;;;;;;;;;24.40;68.60;;;;;;6104626;28;19933;-45
2022/09/14 04:33:35;;;;;;;;;;;24.30;68.50;;;;;;6092387;28;20547;-45
2022/09/14 04:36:39;;;;;;;;;;;24.50;68.50;;;;;;6104955;28;20130;-44
2022/09/14 04:39:41;;;;;;;;;;;24.60;68.60;;;;;;6090051;28;19968;-44
2022/09/14 04:42:42;;;;;;;;;;;24.40;68.50;;;;;;6094884;28;19941;-42
2022/09/14 04:45:44;;;;;;;;;;;24.50;68.60;;;;;;6095188;28;20779;-44
2022/09/14 04:48:45;;;;;;;;;;;24.80;68.60;;;;;;6102058;28;20140;-44
2022/09/14 04:51:47;;;;;;;;;;;24.40;68.60;;;;;;6104424;28;20240;-45
2022/09/14 04:54:48;;;;;;;;;;;24.20;68.10;;;;;;6093954;28;20573;-42
2022/09/14 04:57:50;;;;;;;;;;;24.80;68.80;;;;;;6114244;28;19942;-42
2022/09/14 05:00:52;;;;;;;;;;;24.50;68.60;;;;;;6113420;28;19956;-45
2022/09/14 05:03:54;;;;;;;;;;;24.70;68.70;;;;;;6087323;28;20053;-45
2022/09/14 05:06:55;;;;;;;;;;;24.80;66.30;;;;;;6102877;28;20447;-43
2022/09/14 05:09:56;;;;;;;;;;;24.80;68.70;;;;;;6101324;28;19934;-45
2022/09/14 05:12:58;;;;;;;;;;;24.40;68.60;;;;;;6090604;28;20401;-44
2022/09/14 05:16:18;;;;;;;;;;;24.80;68.80;;;;;;6101059;28;20057;-43
2022/09/14 05:19:19;;;;;;;;;;;24.40;68.50;;;;;;6110053;28;19940;-45
2022/09/14 05:22:21;;;;;;;;;;;24.70;68.90;;;;;;6103848;28;19934;-45
2022/09/14 05:25:22;;;;;;;;;;;25.00;68.90;;;;;;6095740;28;20920;-43
2022/09/14 05:28:24;;;;;;;;;;;24.50;68.40;;;;;;6101102;28;19940;-46
2022/09/14 05:31:27;;;;;;;;;;;24.30;68.60;;;;;;6104600;28;20335;-42
2022/09/14 05:34:28;;;;;;;;;;;24.60;68.80;;;;;;6092674;28;19934;-45
2022/09/14 05:37:30;;;;;;;;;;;24.40;68.70;;;;;;6104263;28;20052;-42
2022/09/14 05:40:31;;;;;;;;;;;24.30;68.50;;;;;;6100245;28;19937;-42
2022/09/14 05:43:33;;;;;;;;;;;24.70;68.80;;;;;;6092142;28;20106;-44
2022/09/14 05:46:35;;;;;;;;;;;24.90;68.80;;;;;;6085129;28;19933;-41
2022/09/14 05:49:36;;;;;;;;;;;24.30;68.60;;;;;;6090106;28;20032;-42
2022/09/14 05:52:37;;;;;;;;;;;24.50;68.90;;;;;;6091076;28;19930;-45
2022/09/14 05:55:38;;;;;;;;;;;24.90;69.10;;;;;;6089571;28;20057;-43
2022/09/14 05:58:41;;;;;;;;;;;24.50;68.70;;;;;;6103600;28;19942;-42
2022/09/14 06:01:42;;;;;;;;;;;24.20;68.40;;;;;;6099381;28;20070;-42
2022/09/14 06:04:45;;;;;;;;;;;24.50;68.60;;;;;;6076970;28;19934;-44
2022/09/14 06:07:49;;;;;;;;;;;24.70;68.60;;;;;;6079785;28;19934;-44
2022/09/14 06:10:51;;;;;;;;;;;24.50;68.60;;;;;;6096656;28;19969;-45
2022/09/14 06:13:53;;;;;;;;;;;24.70;68.90;;;;;;6077059;28;20165;-45
2022/09/14 06:16:56;;;;;;;;;;;24.50;68.40;;;;;;6077336;28;20005;-44
2022/09/14 06:19:57;;;;;;;;;;;24.70;66.40;;;;;;6077548;28;20016;-44
2022/09/14 06:23:05;;;;;;;;;;;24.40;68.50;;;;;;6090904;28;21558;-45
2022/09/14 06:26:06;;;;;;;;;;;24.80;69.50;;;;;;6049434;28;19942;-44
2022/09/14 06:29:08;;;;;;;;;;;24.30;68.20;;;;;;6052198;28;19941;-42
2022/09/14 06:32:10;;;;;;;;;;;24.70;68.70;;;;;;6061185;28;19934;-43
2022/09/14 06:35:11;;;;;;;;;;;24.40;69.10;;;;;;6058358;28;19940;-42
2022/09/14 06:38:14;;;;;;;;;;;24.70;68.70;;;;;;6048587;28;20869;-45
2022/09/14 06:41:17;;;;;;;;;;;24.30;68.00;;;;;;6045059;28;19980;-42
2022/09/14 06:44:18;;;;;;;;;;;24.70;68.60;;;;;;6048887;28;20010;-42
2022/09/14 06:47:20;;;;;;;;;;;24.50;68.10;;;;;;6020319;28;19988;-42
2022/09/14 06:50:22;;;;;;;;;;;24.50;68.20;;;;;;5999580;28;21227;-47
2022/09/14 06:53:23;;;;;;;;;;;24.80;68.00;;;;;;5972845;28;19934;-47
2022/09/14 06:56:25;;;;;;;;;;;24.80;68.50;;;;;;6001457;28;19934;-40
2022/09/14 06:59:26;;;;;;;;;;;24.70;68.10;;;;;;5952744;28;19934;-42
2022/09/14 07:02:28;;;;;;;;;;;24.90;68.10;;;;;;5905639;28;21261;-41
2022/09/14 07:05:30;;;;;;;;;;;25.20;68.30;;;;;;5919781;28;19937;-41
2022/09/14 07:08:32;;;;;;;;;;;24.70;67.50;;;;;;5908868;28;19934;-47
2022/09/14 07:11:34;;;;;;;;;;;24.60;67.30;;;;;;5949103;28;19997;-40
2022/09/14 07:14:37;;;;;;;;;;;25.00;68.00;;;;;;5877920;28;21723;-40
2022/09/14 07:17:39;;;;;;;;;;;24.60;67.30;;;;;;5896363;28;20021;-42
2022/09/14 07:20:40;;;;;;;;;;;25.10;67.60;;;;;;5903941;28;20025;-43
2022/09/14 07:23:42;;;;;;;;;;;25.00;67.10;;;;;;5864682;28;19934;-42
2022/09/14 07:26:44;;;;;;;;;;;25.20;67.80;;;;;;5859850;28;19941;-44
2022/09/14 07:29:46;;;;;;;;;;;24.80;67.30;;;;;;5887410;28;19980;-41
2022/09/14 07:32:48;;;;;;;;;;;24.60;67.00;;;;;;5866465;28;20144;-50
2022/09/14 07:35:51;;;;;;;;;;;25.00;67.40;;;;;;5825929;28;24217;-42
2022/09/14 07:38:53;;;;;;;;;;;24.90;67.00;;;;;;5852326;28;19945;-43
2022/09/14 07:41:55;;;;;;;;;;;24.80;67.30;;;;;;5859652;28;20336;-41
2022/09/14 07:44:56;;;;;;;;;;;24.50;67.00;;;;;;5836151;28;22698;-40
2022/09/14 07:47:59;;;;;;;;;;;25.10;67.90;;;;;;5819828;28;21306;-46
2022/09/14 07:51:01;;;;;;;;;;;25.10;67.40;;;;;;5864221;28;21284;-39
2022/09/14 07:54:03;;;;;;;;;;;25.10;67.40;;;;;;5818389;28;19938;-39
2022/09/14 07:57:04;;;;;;;;;;;25.30;67.20;;;;;;5889116;28;19934;-40
2022/09/14 08:00:07;;;;;;;;;;;24.60;66.80;;;;;;5917190;28;19938;-40
2022/09/14 08:03:13;;;;;;;;;;;25.20;67.00;;;;;;5868520;28;19941;-45
2022/09/14 08:06:15;;;;;;;;;;;25.10;71.50;;;;;;5872439;28;19938;-43
2022/09/14 08:09:16;;;;;;;;;;;25.00;71.30;;;;;;5891860;28;23901;-44
2022/09/14 08:12:18;;;;;;;;;;;25.30;71.50;;;;;;5855691;28;19938;-45
2022/09/14 08:15:20;;;;;;;;;;;25.30;71.40;;;;;;5896474;28;20757;-43
2022/09/14 08:18:28;;;;;;;;;;;25.40;71.40;;;;;;5905318;28;19938;-44
2022/09/14 08:21:31;;;;;;;;;;;25.20;71.10;;;;;;5930769;28;19969;-44
2022/09/14 08:24:32;;;;;;;;;;;25.20;72.10;;;;;;5907562;28;19941;-44
2022/09/14 08:27:33;;;;;;;;;;;25.50;71.40;;;;;;5931057;28;19934;-43
2022/09/14 08:30:35;;;;;;;;;;;25.40;71.20;;;;;;5963271;28;19934;-43
2022/09/14 08:33:40;;;;;;;;;;;25.00;71.40;;;;;;5920994;28;19934;-45
2022/09/14 08:36:42;;;;;;;;;;;25.00;71.30;;;;;;5931591;28;19934;-44
2022/09/14 08:39:45;;;;;;;;;;;24.90;71.40;;;;;;5923620;28;19993;-44
2022/09/14 08:42:55;;;;;;;;;;;25.00;71.30;;;;;;5928108;28;21002;-46
2022/09/14 08:46:00;;;;;;;;;;;25.40;71.60;;;;;;5917384;28;20020;-43
2022/09/14 08:49:05;;;;;;;;;;;25.00;71.30;;;;;;5913130;28;20050;-43
2022/09/14 08:52:11;;;;;;;;;;;25.30;71.50;;;;;;5916971;28;19934;-44
2022/09/14 08:55:18;;;;;;;;;;;25.20;71.50;;;;;;5891000;28;19933;-44
2022/09/14 08:58:27;;;;;;;;;;;25.30;71.70;;;;;;5914565;28;22613;-43
2022/09/14 09:01:32;;;;;;;;;;;25.50;71.70;;;;;;5885887;28;19942;-42
2022/09/14 09:04:39;;;;;;;;;;;25.00;71.20;;;;;;5873232;28;19938;-40
2022/09/14 09:07:45;;;;;;;;;;;24.90;71.20;;;;;;5888658;28;31587;-48
2022/09/14 09:10:47;;;;;;;;;;;25.00;71.40;;;;;;5899109;28;21341;-43
2022/09/14 09:13:50;;;;;;;;;;;25.40;71.70;;;;;;5915608;28;19985;-46
2022/09/14 09:16:53;;;;;;;;;;;25.40;71.30;;;;;;5906057;28;19934;-42
2022/09/14 09:19:58;;;;;;;;;;;25.60;70.40;;;;;;5913338;28;24284;-45
2022/09/14 09:23:06;;;;;;;;;;;25.50;71.10;;;;;;5928639;28;19933;-44
2022/09/14 09:26:21;;;;;;;;;;;25.50;71.00;;;;;;5876052;28;19934;-41
2022/09/14 09:29:23;;;;;;;;;;;25.40;71.00;;;;;;5895325;28;21251;-41
2022/09/14 09:32:42;;;;;;;;;;;25.50;70.90;;;;;;5904639;28;19980;-41
2022/09/14 09:36:00;;;;;;;;;;;25.70;71.00;;;;;;5899431;28;22564;-41
2022/09/14 09:39:05;;;;;;;;;;;25.50;70.80;;;;;;5925521;28;20593;-41
2022/09/14 09:42:07;;;;;;;;;;;24.90;70.40;;;;;;5924671;28;19938;-41
2022/09/14 09:45:09;;;;;;;;;;;25.50;70.80;;;;;;5893766;28;20064;-44
2022/09/14 09:48:10;;;;;;;;;;;25.70;71.00;;;;;;5926230;28;19934;-41
2022/09/14 09:51:13;;;;;;;;;;;25.50;70.80;;;;;;5887845;28;20096;-40
2022/09/14 09:54:24;;;;;;;;;;;25.80;70.90;;;;;;5893541;28;21343;-42
2022/09/14 09:57:28;;;;;;;;;;;25.80;71.00;;;;;;5885236;28;19934;-41
2022/09/14 10:00:29;;;;;;;;;;;25.70;70.80;;;;;;5876146;28;19972;-45
2022/09/14 10:03:32;;;;;;;;;;;25.70;70.90;;;;;;5901420;28;19938;-41
2022/09/14 10:06:40;;;;;;;;;;;25.30;70.70;;;;;;5874837;28;19934;-41
2022/09/14 10:09:42;;;;;;;;;;;25.50;70.70;;;;;;5922693;28;20053;-45
2022/09/14 10:12:45;;;;;;;;;;;25.70;71.00;;;;;;5942189;28;19934;-45
2022/09/14 10:15:47;;;;;;;;;;;25.40;70.70;;;;;;5955266;28;19942;-42
2022/09/14 10:18:50;;;;;;;;;;;25.70;70.80;;;;;;5924683;28;19938;-45
2022/09/14 10:22:02;;;;;;;;;;;25.70;71.10;;;;;;5928798;28;20234;-43
2022/09/14 10:25:19;;;;;;;;;;;25.50;70.90;;;;;;5879339;28;20025;-43
2022/09/14 10:28:23;;;;;;;;;;;25.90;71.20;;;;;;5944552;28;19956;-46
2022/09/14 10:31:29;;;;;;;;;;;25.90;71.00;;;;;;5984883;28;20100;-49
2022/09/14 10:34:31;;;;;;;;;;;25.60;70.80;;;;;;5969420;28;19934;-42
2022/09/14 10:37:42;;;;;;;;;;;25.80;70.60;;;;;;5994048;28;19981;-43
2022/09/14 10:40:46;;;;;;;;;;;25.50;71.00;;;;;;6022871;28;21280;-44
2022/09/14 10:43:55;;;;;;;;;;;26.40;71.20;;;;;;5981222;28;22848;-43
2022/09/14 10:47:08;;;;;;;;;;;25.70;70.70;;;;;;5999760;28;19941;-43
2022/09/14 10:50:20;;;;;;;;;;;25.90;71.00;;;;;;6014338;28;21113;-44
2022/09/14 10:53:30;;;;;;;;;;;25.70;70.70;;;;;;5988771;28;19934;-43
2022/09/14 10:56:38;;;;;;;;;;;25.90;70.10;;;;;;6000493;28;19934;-45
2022/09/14 10:59:45;;;;;;;;;;;25.80;70.90;;;;;;6001976;28;21520;-49
2022/09/14 11:02:56;;;;;;;;;;;26.00;71.10;;;;;;5982868;28;19940;-45
2022/09/14 11:06:02;;;;;;;;;;;25.70;70.80;;;;;;5990047;28;19934;-48
2022/09/14 11:09:08;;;;;;;;;;;26.00;70.80;;;;;;6001273;28;20778;-44
2022/09/14 11:12:12;;;;;;;;;;;25.90;71.00;;;;;;6025115;28;19941;-45
2022/09/14 11:15:20;;;;;;;;;;;26.00;71.00;;;;;;5974229;28;20025;-45
2022/09/14 11:18:26;;;;;;;;;;;25.80;71.10;;;;;;6011651;28;19934;-44
2022/09/14 11:21:33;;;;;;;;;;;26.00;70.40;;;;;;6018167;28;20985;-44
2022/09/14 11:24:38;;;;;;;;;;;25.70;70.90;;;;;;5959087;28;20568;-42
2022/09/14 11:27:42;;;;;;;;;;;26.40;71.30;;;;;;5970291;28;19938;-43
2022/09/14 11:30:46;;;;;;;;;;;25.60;70.80;;;;;;5947793;28;20118;-44
2022/09/14 11:33:49;;;;;;;;;;;26.20;71.70;;;;;;5941686;28;19942;-44
2022/09/14 11:36:53;;;;;;;;;;;25.80;70.80;;;;;;5946688;28;20412;-45
2022/09/14 11:39:59;;;;;;;;;;;26.20;72.30;;;;;;5919856;28;25078;-48
2022/09/14 11:43:03;;;;;;;;;;;25.40;71.80;;;;;;5936212;28;19957;-43
2022/09/14 11:46:06;;;;;;;;;;;26.00;72.00;;;;;;5957769;28;20570;-46
2022/09/14 11:49:13;;;;;;;;;;;26.20;72.60;;;;;;5930241;28;19934;-44
2022/09/14 11:52:16;;;;;;;;;;;26.20;71.90;;;;;;5896454;28;19942;-43
2022/09/14 11:55:18;;;;;;;;;;;25.60;71.20;;;;;;5866758;28;20499;-44
2022/09/14 11:58:22;;;;;;;;;;;26.60;71.60;;;;;;5878639;28;19938;-44
2022/09/14 12:01:26;;;;;;;;;;;26.10;70.80;;;;;;5874116;28;19963;-45
2022/09/14 12:04:27;;;;;;;;;;;26.30;71.50;;;;;;5866755;28;19946;-48
2022/09/14 12:07:41;;;;;;;;;;;25.90;70.80;;;;;;5874644;28;20377;-45
2022/09/14 12:10:58;;;;;;;;;;;26.30;71.10;;;;;;5905589;28;20182;-44
2022/09/14 12:14:12;;;;;;;;;;;26.20;71.20;;;;;;5901389;28;23432;-45
2022/09/14 12:17:16;;;;;;;;;;;26.30;71.20;;;;;;5887852;28;19934;-42
2022/09/14 12:20:41;;;;;;;;;;;26.20;71.20;;;;;;5895643;28;19934;-42
2022/09/14 12:23:45;;;;;;;;;;;26.30;71.10;;;;;;5907852;28;22437;-41
2022/09/14 12:26:46;;;;;;;;;;;26.20;71.20;;;;;;5899823;28;19982;-43
2022/09/14 12:29:48;;;;;;;;;;;26.20;71.30;;;;;;5916490;28;20081;-44
2022/09/14 12:32:50;;;;;;;;;;;26.10;71.20;;;;;;5889691;28;20181;-41
2022/09/14 12:35:51;;;;;;;;;;;26.00;71.20;;;;;;5894458;28;19938;-43
2022/09/14 12:39:07;;;;;;;;;;;26.10;71.40;;;;;;5856001;28;21102;-42
2022/09/14 12:42:23;;;;;;;;;;;26.10;71.30;;;;;;5895568;28;20072;-41
2022/09/14 12:45:41;;;;;;;;;;;26.10;71.50;;;;;;5858387;28;20054;-41
2022/09/14 12:48:57;;;;;;;;;;;26.20;71.30;;;;;;5887706;28;19938;-42
2022/09/14 12:52:14;;;;;;;;;;;26.10;71.50;;;;;;5873451;28;19941;-43
2022/09/14 12:55:21;;;;;;;;;;;26.30;69.30;;;;;;5879920;28;19934;-43
2022/09/14 12:58:33;;;;;;;;;;;26.20;71.60;;;;;;5877404;28;22254;-44
2022/09/14 13:01:37;;;;;;;;;;;26.40;71.80;;;;;;5912548;28;19941;-41
2022/09/14 13:04:41;;;;;;;;;;;26.20;71.80;;;;;;5884414;28;19992;-41
2022/09/14 13:07:42;;;;;;;;;;;26.20;71.60;;;;;;5889559;28;20017;-41
2022/09/14 13:10:45;;;;;;;;;;;26.40;72.00;;;;;;5894550;28;21826;-43
2022/09/14 13:13:48;;;;;;;;;;;26.10;71.70;;;;;;5870473;28;20675;-41
2022/09/14 13:16:50;;;;;;;;;;;25.80;71.80;;;;;;5855728;28;19934;-42
2022/09/14 13:19:58;;;;;;;;;;;25.90;71.90;;;;;;5907233;28;19941;-42
2022/09/14 13:22:59;;;;;;;;;;;25.90;71.80;;;;;;5894189;28;20486;-41
2022/09/14 13:26:07;;;;;;;;;;;25.80;72.00;;;;;;5884303;28;19934;-41
2022/09/14 13:29:09;;;;;;;;;;;25.70;72.50;;;;;;5862645;28;20549;-42
2022/09/14 13:32:13;;;;;;;;;;;26.30;72.30;;;;;;5842218;28;20057;-43
2022/09/14 13:35:16;;;;;;;;;;;25.70;72.20;;;;;;5853551;28;19934;-42
2022/09/14 13:38:20;;;;;;;;;;;26.00;72.30;;;;;;5870806;28;20461;-42
2022/09/14 13:41:22;;;;;;;;;;;26.20;72.50;;;;;;5894732;28;20012;-42
2022/09/14 13:44:25;;;;;;;;;;;26.10;72.40;;;;;;5874529;28;19934;-41
2022/09/14 13:47:27;;;;;;;;;;;25.80;72.20;;;;;;5839099;28;19935;-42
2022/09/14 13:50:29;;;;;;;;;;;26.00;73.20;;;;;;5882511;28;25378;-41
2022/09/14 13:53:40;;;;;;;;;;;25.90;72.40;;;;;;5843839;28;19934;-40
2022/09/14 13:56:41;;;;;;;;;;;26.10;72.40;;;;;;5818486;28;20012;-43
2022/09/14 13:59:58;;;;;;;;;;;26.00;72.30;;;;;;5845130;28;19956;-40
2022/09/14 14:03:03;;;;;;;;;;;26.10;72.40;;;;;;5884611;28;21916;-43
2022/09/14 14:06:19;;;;;;;;;;;26.30;72.50;;;;;;5871097;28;19941;-50
2022/09/14 14:09:20;;;;;;;;;;;26.20;72.40;;;;;;5843158;28;19946;-44
2022/09/14 14:12:24;;;;;;;;;;;26.00;72.80;;;;;;5882887;28;19943;-45
2022/09/14 14:15:36;;;;;;;;;;;25.90;72.10;;;;;;5859146;28;21179;-53
2022/09/14 14:18:39;;;;;;;;;;;25.90;72.20;;;;;;5869079;28;19942;-45
2022/09/14 14:21:41;;;;;;;;;;;26.20;72.30;;;;;;5881375;28;21018;-41
2022/09/14 14:24:44;;;;;;;;;;;26.00;72.30;;;;;;5845313;28;19941;-42
2022/09/14 14:28:13;;;;;;;;;;;26.10;72.30;;;;;;5896068;28;19937;-42
2022/09/14 14:31:15;;;;;;;;;;;26.00;72.20;;;;;;5892673;28;19934;-41
2022/09/14 14:34:22;;;;;;;;;;;25.30;71.20;;;;;;5914401;28;20025;-44
2022/09/14 14:37:24;;;;;;;;;;;25.60;71.70;;;;;;5888386;28;19938;-42
2022/09/14 14:40:26;;;;;;;;;;;25.90;72.00;;;;;;5887106;28;20023;-43
2022/09/14 14:43:28;;;;;;;;;;;25.80;72.10;;;;;;5892299;28;19941;-42
2022/09/14 14:46:29;;;;;;;;;;;25.50;71.80;;;;;;5916580;28;20084;-40
2022/09/14 14:49:32;;;;;;;;;;;26.00;72.00;;;;;;5911830;28;21463;-41
2022/09/14 14:52:34;;;;;;;;;;;26.20;72.30;;;;;;5895924;28;19941;-40
2022/09/14 14:55:36;;;;;;;;;;;25.90;72.30;;;;;;5888990;28;20367;-42
2022/09/14 14:58:41;;;;;;;;;;;26.20;72.60;;;;;;5855169;28;19981;-41
2022/09/14 15:01:42;;;;;;;;;;;26.00;72.50;;;;;;5887002;28;19941;-50
2022/09/14 15:04:44;;;;;;;;;;;26.10;72.70;;;;;;5877127;28;21214;-44
2022/09/14 15:07:48;;;;;;;;;;;25.90;72.20;;;;;;5923090;28;21598;-47
2022/09/14 15:10:54;;;;;;;;;;;26.10;72.70;;;;;;5896090;28;19941;-49
2022/09/14 15:13:56;;;;;;;;;;;25.70;72.40;;;;;;5891469;28;20020;-42
2022/09/14 15:16:58;;;;;;;;;;;26.00;61.70;;;;;;5901287;28;19934;-42
2022/09/14 15:20:00;;;;;;;;;;;25.90;61.70;;;;;;5905929;28;21080;-44
2022/09/14 15:23:02;;;;;;;;;;;26.30;62.00;;;;;;5892173;28;19940;-44
2022/09/14 15:26:04;;;;;;;;;;;26.00;61.80;;;;;;5916745;28;19934;-47
2022/09/14 15:29:05;;;;;;;;;;;26.00;61.80;;;;;;5923611;28;19934;-40
2022/09/14 15:32:06;;;;;;;;;;;25.90;61.80;;;;;;5937040;28;19941;-43
2022/09/14 15:35:11;;;;;;;;;;;25.70;61.60;;;;;;5931678;28;19938;-40
2022/09/14 15:38:13;;;;;;;;;;;26.00;61.80;;;;;;5932498;28;21272;-41
2022/09/14 15:41:14;;;;;;;;;;;26.30;62.00;;;;;;5924497;28;20825;-40
2022/09/14 15:44:15;;;;;;;;;;;26.00;61.80;;;;;;5966611;28;19938;-44
2022/09/14 15:47:17;;;;;;;;;;;26.10;61.90;;;;;;5934840;28;19942;-44
2022/09/14 15:50:18;;;;;;;;;;;26.00;61.90;;;;;;5927392;28;19942;-44
2022/09/14 15:53:20;;;;;;;;;;;26.10;61.80;;;;;;5949076;28;20681;-44
2022/09/14 15:56:21;;;;;;;;;;;26.00;61.80;;;;;;5937838;28;19934;-44
2022/09/14 15:59:23;;;;;;;;;;;26.10;62.00;;;;;;5922659;28;19942;-43
2022/09/14 16:02:24;;;;;;;;;;;26.00;62.00;;;;;;5944145;28;20364;-42
2022/09/14 16:05:26;;;;;;;;;;;26.20;62.30;;;;;;5929785;28;20202;-44
2022/09/14 16:08:29;;;;;;;;;;;25.70;62.10;;;;;;5962686;28;20429;-43
2022/09/14 16:11:32;;;;;;;;;;;26.00;62.00;;;;;;5977528;28;21275;-43
2022/09/14 16:14:34;;;;;;;;;;;25.70;62.00;;;;;;5980303;28;19953;-41
2022/09/14 16:17:35;;;;;;;;;;;26.00;62.30;;;;;;6019462;28;19931;-41
2022/09/14 16:20:37;;;;;;;;;;;25.80;62.20;;;;;;6037249;28;19934;-41
2022/09/14 16:23:43;;;;;;;;;;;26.00;62.50;;;;;;6037464;28;19941;-43
2022/09/14 16:26:44;;;;;;;;;;;25.80;62.40;;;;;;6002698;28;19934;-42
2022/09/14 16:29:46;;;;;;;;;;;26.00;62.60;;;;;;6048110;28;20012;-42
2022/09/14 16:32:47;;;;;;;;;;;25.60;62.40;;;;;;6042633;28;19957;-43
2022/09/14 16:35:49;;;;;;;;;;;25.70;62.60;;;;;;6051227;28;21176;-44
2022/09/14 16:38:50;;;;;;;;;;;25.50;62.50;;;;;;6053844;28;19940;-43
2022/09/14 16:41:54;;;;;;;;;;;26.00;62.80;;;;;;6057066;28;19980;-41
2022/09/14 16:44:55;;;;;;;;;;;25.80;62.80;;;;;;6053458;28;19934;-45
2022/09/14 16:47:57;;;;;;;;;;;25.40;62.50;;;;;;6067602;28;19934;-43
2022/09/14 16:51:00;;;;;;;;;;;25.90;62.90;;;;;;6073725;28;20749;-44
2022/09/14 16:54:02;;;;;;;;;;;25.80;62.90;;;;;;6056470;28;19940;-45
2022/09/14 16:57:04;;;;;;;;;;;25.60;62.70;;;;;;6069378;28;19934;-43
2022/09/14 17:00:06;;;;;;;;;;;25.70;63.00;;;;;;6078311;28;20927;-45
2022/09/14 17:03:07;;;;;;;;;;;26.10;63.10;;;;;;6079889;28;19934;-44
2022/09/14 17:06:09;;;;;;;;;;;25.60;63.00;;;;;;6080764;28;19934;-45
2022/09/14 17:09:12;;;;;;;;;;;25.50;62.90;;;;;;6082303;28;20024;-43
2022/09/14 17:12:14;;;;;;;;;;;25.30;62.70;;;;;;6082160;28;20113;-44
2022/09/14 17:15:15;;;;;;;;;;;25.90;63.20;;;;;;6091102;28;20884;-44
2022/09/14 17:18:17;;;;;;;;;;;25.70;63.10;;;;;;6084077;28;19980;-45
2022/09/14 17:21:22;;;;;;;;;;;25.20;62.80;;;;;;6084009;28;19940;-45
2022/09/14 17:24:25;;;;;;;;;;;25.70;63.20;;;;;;6088740;28;19934;-43
2022/09/14 17:27:26;;;;;;;;;;;25.40;63.00;;;;;;6089677;28;19977;-43
2022/09/14 17:30:27;;;;;;;;;;;25.70;63.40;;;;;;6093937;28;19968;-43
2022/09/14 17:33:29;;;;;;;;;;;25.30;63.10;;;;;;6078705;28;20024;-43
2022/09/14 17:36:31;;;;;;;;;;;25.60;63.40;;;;;;6080414;28;20084;-44
2022/09/14 17:39:33;;;;;;;;;;;25.40;63.20;;;;;;6082876;28;19934;-43
2022/09/14 17:42:34;;;;;;;;;;;25.20;63.10;;;;;;6080577;28;19976;-44
2022/09/14 17:45:36;;;;;;;;;;;25.60;63.60;;;;;;6078248;28;20112;-43
2022/09/14 17:48:38;;;;;;;;;;;25.70;63.70;;;;;;6080356;28;20069;-43